Time;durP1;ratioP1;P1;durP2;ratioP2;P2;SDS_P1;SDS_P2;PMS_P1;PMS_P2;Temp;Humidity;BMP_temperature;BMP_pressure;BME280_temperature;BME280_humidity;BME280_pressure;Samples;Min_cycle;Max_cycle;Signal;HPM_P1;HPM_P2
2022/01/12 00:01:19;;;;;;;;;69.75;55.00;;;;;;;;5054478;28;45504;-65
2022/01/12 00:03:44;;;;;;;;;68.50;55.00;;;;;;;;5054948;28;45429;-63
2022/01/12 00:06:10;;;;;;;;;72.75;53.75;;;;;;;;5053681;28;46929;-63
2022/01/12 00:08:37;;;;;;;;;65.25;51.75;;;;;;;;5039522;28;45575;-63
2022/01/12 00:11:03;;;;;;;;;71.75;55.25;;;;;;;;5054414;28;45689;-63
2022/01/12 00:13:28;;;;;;;;;67.75;55.75;;;;;;;;5054314;28;45477;-64
2022/01/12 00:15:53;;;;;;;;;71.25;54.50;;;;;;;;5054246;28;45716;-63
2022/01/12 00:18:20;;;;;;;;;67.25;50.50;;;;;;;;5054073;28;45460;-62
2022/01/12 00:20:45;;;;;;;;;71.00;56.00;;;;;;;;5053700;28;45458;-63
2022/01/12 00:23:10;;;;;;;;;67.25;53.50;;;;;;;;5036162;28;45733;-64
2022/01/12 00:25:55;;;;;;;;;72.50;56.00;;;;;;;;5035751;28;47276;-63
2022/01/12 00:33:48;;;;;;;;;70.25;56.50;;;;;;;;5054260;28;45496;-63
2022/01/12 00:36:13;;;;;;;;;70.00;51.50;;;;;;;;5053143;28;46404;-63
2022/01/12 00:38:38;;;;;;;;;69.50;54.00;;;;;;;;5053936;28;47582;-64
2022/01/12 00:41:03;;;;;;;;;68.75;56.00;;;;;;;;5035788;28;45758;-63
2022/01/12 00:43:29;;;;;;;;;68.50;53.75;;;;;;;;5053145;28;45381;-63
2022/01/12 00:45:55;;;;;;;;;66.25;52.25;;;;;;;;5054141;28;45507;-64
2022/01/12 00:48:20;;;;;;;;;67.50;53.25;;;;;;;;5035613;28;45545;-63
2022/01/12 00:50:46;;;;;;;;;69.50;52.25;;;;;;;;5053182;28;45496;-63
2022/01/12 00:53:12;;;;;;;;;67.50;54.00;;;;;;;;5053348;28;45571;-63
2022/01/12 00:55:37;;;;;;;;;73.50;55.75;;;;;;;;5052961;28;46361;-63
2022/01/12 00:58:02;;;;;;;;;68.50;53.50;;;;;;;;5054212;28;45494;-63
2022/01/12 01:00:28;;;;;;;;;63.00;49.00;;;;;;;;5053351;28;45728;-63
2022/01/12 01:02:54;;;;;;;;;69.50;53.00;;;;;;;;5053097;28;45662;-63
2022/01/12 01:05:23;;;;;;;;;66.00;54.25;;;;;;;;5052477;28;45643;-63
2022/01/12 01:07:49;;;;;;;;;68.75;54.00;;;;;;;;5053526;28;45501;-63
2022/01/12 01:10:22;;;;;;;;;70.25;57.00;;;;;;;;5053637;28;45514;-63
2022/01/12 01:12:48;;;;;;;;;74.25;56.75;;;;;;;;5053123;28;45357;-63
2022/01/12 01:15:17;;;;;;;;;69.75;54.00;;;;;;;;5052890;28;45944;-63
2022/01/12 01:25:39;;;;;;;;;70.00;55.75;;;;;;;;5049878;28;46146;-62
2022/01/12 01:28:05;;;;;;;;;71.25;56.00;;;;;;;;5050380;28;45726;-62
2022/01/12 01:30:31;;;;;;;;;70.75;55.25;;;;;;;;5033626;28;45667;-62
2022/01/12 01:33:03;;;;;;;;;74.50;58.00;;;;;;;;5052611;28;45437;-62
2022/01/12 01:35:30;;;;;;;;;70.75;56.00;;;;;;;;5044961;28;45950;-63
2022/01/12 01:37:56;;;;;;;;;68.50;54.25;;;;;;;;5034501;28;46122;-62
2022/01/12 01:40:21;;;;;;;;;71.00;54.75;;;;;;;;5033995;28;45449;-62
2022/01/12 01:53:29;;;;;;;;;75.00;56.50;;;;;;;;5052159;28;45440;-62
2022/01/12 01:55:54;;;;;;;;;73.00;55.50;;;;;;;;5052100;28;46425;-64
2022/01/12 01:58:20;;;;;;;;;71.25;55.75;;;;;;;;5051453;28;45401;-63
2022/01/12 02:00:45;;;;;;;;;69.50;55.00;;;;;;;;5051609;28;46225;-63
2022/01/12 02:03:11;;;;;;;;;73.50;57.25;;;;;;;;5052107;28;45476;-64
2022/01/12 02:05:40;;;;;;;;;73.50;56.50;;;;;;;;5049695;28;45648;-64
2022/01/12 02:08:05;;;;;;;;;68.75;53.25;;;;;;;;5036523;28;45443;-63
2022/01/12 02:10:30;;;;;;;;;74.75;57.00;;;;;;;;5052144;28;45788;-63
2022/01/12 02:12:55;;;;;;;;;70.75;55.25;;;;;;;;5034740;28;45674;-63
2022/01/12 02:15:23;;;;;;;;;71.00;53.25;;;;;;;;5051091;28;45911;-63
2022/01/12 02:37:15;;;;;;;;;76.50;55.50;;;;;;;;5051260;28;45825;-63
2022/01/12 02:39:51;;;;;;;;;70.00;56.50;;;;;;;;5033521;28;45951;-64
2022/01/12 02:42:18;;;;;;;;;70.50;55.75;;;;;;;;5051753;28;45532;-64
2022/01/12 02:55:43;;;;;;;;;68.50;55.50;;;;;;;;5042250;28;45646;-64
2022/01/12 02:58:08;;;;;;;;;72.00;54.25;;;;;;;;5051295;28;45939;-63
2022/01/12 03:03:22;;;;;;;;;75.25;56.50;;;;;;;;5028623;28;45786;-64
2022/01/12 03:05:56;;;;;;;;;64.00;51.50;;;;;;;;5045598;28;46004;-62
2022/01/12 03:08:24;;;;;;;;;71.25;53.75;;;;;;;;5027778;28;45998;-63
2022/01/12 03:10:49;;;;;;;;;69.50;57.00;;;;;;;;5028615;28;45550;-63
2022/01/12 03:13:14;;;;;;;;;66.25;51.25;;;;;;;;5029134;28;45636;-63
2022/01/12 03:15:41;;;;;;;;;71.00;54.50;;;;;;;;5027847;28;45553;-63
2022/01/12 03:18:06;;;;;;;;;75.00;56.25;;;;;;;;5028494;28;46504;-63
2022/01/12 03:20:32;;;;;;;;;68.75;52.75;;;;;;;;5028805;28;45483;-62
2022/01/12 03:22:57;;;;;;;;;51.75;39.75;;;;;;;;5029160;28;45773;-63
2022/01/12 03:25:22;;;;;;;;;70.25;55.50;;;;;;;;5028237;28;45422;-63
2022/01/12 03:27:49;;;;;;;;;69.25;55.25;;;;;;;;5028147;28;46051;-63
2022/01/12 03:30:15;;;;;;;;;76.75;58.25;;;;;;;;5027954;28;46189;-62
2022/01/12 03:32:46;;;;;;;;;67.75;53.50;;;;;;;;5020691;28;47176;-62
2022/01/12 03:35:24;;;;;;;;;74.25;57.25;;;;;;;;5044348;28;45624;-64
2022/01/12 03:38:22;;;;;;;;;67.25;52.25;;;;;;;;5044917;28;46938;-63
2022/01/12 03:40:40;;;;;;;;;68.75;53.25;;;;;;;;5031085;28;45524;-63
2022/01/12 03:43:06;;;;;;;;;63.00;52.25;;;;;;;;5051278;28;45496;-63
2022/01/12 03:45:31;;;;;;;;;67.75;51.50;;;;;;;;5049946;28;45432;-62
2022/01/12 03:47:56;;;;;;;;;73.25;57.25;;;;;;;;5050588;28;45378;-63
2022/01/12 03:50:21;;;;;;;;;75.00;57.25;;;;;;;;5050243;28;45547;-62
2022/01/12 03:52:46;;;;;;;;;73.00;57.75;;;;;;;;5032666;28;45466;-63
2022/01/12 03:55:12;;;;;;;;;71.25;53.25;;;;;;;;5033141;28;45524;-62
2022/01/12 03:57:37;;;;;;;;;69.25;52.25;;;;;;;;5049960;28;46018;-63
2022/01/12 04:00:03;;;;;;;;;63.50;51.00;;;;;;;;5050182;28;45434;-62
2022/01/12 04:02:29;;;;;;;;;62.75;49.75;;;;;;;;5051248;28;45745;-61
2022/01/12 04:10:32;;;;;;;;;76.75;57.00;;;;;;;;5049873;28;45679;-62
2022/01/12 04:12:58;;;;;;;;;69.75;53.00;;;;;;;;5032789;28;45567;-62
2022/01/12 04:15:23;;;;;;;;;77.25;58.75;;;;;;;;5050236;28;45548;-62
2022/01/12 04:17:48;;;;;;;;;72.50;56.00;;;;;;;;5050447;28;46172;-62
2022/01/12 04:20:13;;;;;;;;;65.00;53.00;;;;;;;;5050098;28;45542;-63
2022/01/12 04:25:24;;;;;;;;;68.50;52.25;;;;;;;;5047571;28;45401;-63
2022/01/12 04:27:50;;;;;;;;;66.75;50.75;;;;;;;;5047649;28;46123;-61
2022/01/12 04:30:15;;;;;;;;;69.75;55.75;;;;;;;;5053351;28;45626;-62
2022/01/12 04:32:42;;;;;;;;;66.00;54.00;;;;;;;;5053797;28;45612;-63
2022/01/12 04:35:08;;;;;;;;;70.75;56.50;;;;;;;;5035847;28;45533;-63
2022/01/12 04:37:34;;;;;;;;;67.25;55.75;;;;;;;;5034679;28;46951;-63
2022/01/12 04:39:59;;;;;;;;;73.50;55.50;;;;;;;;5053213;28;45620;-63
2022/01/12 04:42:24;;;;;;;;;66.50;54.75;;;;;;;;5053199;28;45496;-62
2022/01/12 04:44:59;;;;;;;;;68.50;53.00;;;;;;;;5035450;28;47685;-63
2022/01/12 04:47:44;;;;;;;;;68.00;55.00;;;;;;;;5052715;28;45580;-62
2022/01/12 04:50:10;;;;;;;;;65.25;51.75;;;;;;;;5053313;28;45662;-61
2022/01/12 04:52:35;;;;;;;;;68.50;52.75;;;;;;;;5035432;28;45445;-63
2022/01/12 04:55:00;;;;;;;;;62.25;50.50;;;;;;;;5052408;28;45628;-62
2022/01/12 04:57:25;;;;;;;;;63.25;51.25;;;;;;;;5051888;28;46050;-61
2022/01/12 05:00:06;;;;;;;;;66.50;51.75;;;;;;;;5035248;28;46433;-62
2022/01/12 05:08:13;;;;;;;;;62.25;48.50;;;;;;;;5039028;28;45536;-63
2022/01/12 05:13:23;;;;;;;;;63.00;51.25;;;;;;;;5044554;28;45854;-62
2022/01/12 05:15:48;;;;;;;;;63.75;50.00;;;;;;;;5047338;28;45809;-62
2022/01/12 05:18:14;;;;;;;;;59.00;46.25;;;;;;;;5034786;28;47510;-62
2022/01/12 05:20:39;;;;;;;;;64.25;48.25;;;;;;;;5053118;28;45518;-63
2022/01/12 05:23:04;;;;;;;;;67.00;52.25;;;;;;;;5053161;28;45452;-63
2022/01/12 05:25:29;;;;;;;;;62.50;49.25;;;;;;;;5050810;28;45350;-62
2022/01/12 05:27:55;;;;;;;;;65.25;52.25;;;;;;;;5046980;28;45491;-62
2022/01/12 05:30:20;;;;;;;;;63.75;52.50;;;;;;;;5050680;28;45936;-63
2022/01/12 05:32:46;;;;;;;;;61.25;48.75;;;;;;;;5050611;28;45401;-63
2022/01/12 05:35:13;;;;;;;;;70.25;52.50;;;;;;;;5043670;28;45683;-62
2022/01/12 05:37:39;;;;;;;;;60.50;48.50;;;;;;;;5044991;28;46587;-63
2022/01/12 05:40:05;;;;;;;;;69.75;55.25;;;;;;;;5051483;28;45911;-63
2022/01/12 05:42:31;;;;;;;;;67.00;51.50;;;;;;;;5050363;28;45562;-62
2022/01/12 05:44:56;;;;;;;;;64.75;51.00;;;;;;;;5034514;28;45700;-62
2022/01/12 05:50:25;;;;;;;;;66.50;54.00;;;;;;;;4945770;28;45663;-62
2022/01/12 05:52:51;;;;;;;;;67.00;52.75;;;;;;;;4951110;28;45780;-62
2022/01/12 05:55:16;;;;;;;;;68.25;52.00;;;;;;;;4948653;28;45604;-62
2022/01/12 05:57:42;;;;;;;;;69.00;49.75;;;;;;;;4950831;28;46631;-63
2022/01/12 06:00:08;;;;;;;;;63.25;51.25;;;;;;;;4950799;28;45558;-62
2022/01/12 06:02:33;;;;;;;;;66.00;51.75;;;;;;;;4936624;28;45584;-63
2022/01/12 06:04:58;;;;;;;;;64.75;51.75;;;;;;;;4944000;28;45622;-63
2022/01/12 06:07:24;;;;;;;;;62.75;51.50;;;;;;;;4933859;28;47587;-62
2022/01/12 06:09:49;;;;;;;;;62.25;50.00;;;;;;;;4948440;28;45557;-62
2022/01/12 06:12:15;;;;;;;;;68.25;52.25;;;;;;;;4948468;28;45542;-62
2022/01/12 06:14:41;;;;;;;;;67.25;52.75;;;;;;;;4947363;28;45430;-63
2022/01/12 06:17:07;;;;;;;;;63.75;49.00;;;;;;;;4950423;28;46718;-64
2022/01/12 06:19:32;;;;;;;;;68.00;53.25;;;;;;;;4942269;28;45546;-64
2022/01/12 06:21:57;;;;;;;;;60.75;49.25;;;;;;;;5015736;28;45639;-63
2022/01/12 06:24:22;;;;;;;;;65.00;51.00;;;;;;;;5013155;28;45529;-63
2022/01/12 06:26:48;;;;;;;;;70.50;54.25;;;;;;;;5049553;28;45716;-63
2022/01/12 06:29:24;;;;;;;;;70.00;55.25;;;;;;;;5050437;28;45519;-63
2022/01/12 06:31:51;;;;;;;;;63.50;49.25;;;;;;;;5036064;28;47840;-62
2022/01/12 06:34:16;;;;;;;;;69.50;51.25;;;;;;;;5041608;28;46109;-63
2022/01/12 06:36:42;;;;;;;;;67.75;56.00;;;;;;;;5048449;28;45501;-62
2022/01/12 06:39:09;;;;;;;;;69.75;54.50;;;;;;;;5046968;28;45413;-63
2022/01/12 06:41:36;;;;;;;;;67.75;53.75;;;;;;;;5048643;28;45737;-62
2022/01/12 06:44:01;;;;;;;;;69.25;56.00;;;;;;;;5032431;28;45614;-63
2022/01/12 06:46:29;;;;;;;;;71.00;51.25;;;;;;;;5030302;28;48010;-62
2022/01/12 06:48:54;;;;;;;;;68.75;57.00;;;;;;;;5034716;28;45411;-62
2022/01/12 06:51:20;;;;;;;;;62.25;48.75;;;;;;;;5049641;28;45528;-62
2022/01/12 06:53:45;;;;;;;;;70.25;55.00;;;;;;;;5050240;28;45740;-62
2022/01/12 06:56:10;;;;;;;;;66.50;53.50;;;;;;;;5051339;28;45739;-63
2022/01/12 06:58:35;;;;;;;;;70.00;54.25;;;;;;;;5051677;28;45369;-63
2022/01/12 07:01:01;;;;;;;;;77.50;57.25;;;;;;;;5052408;28;45596;-62
2022/01/12 07:03:26;;;;;;;;;68.00;52.75;;;;;;;;5051249;28;45518;-61
2022/01/12 07:05:51;;;;;;;;;74.25;56.00;;;;;;;;5032510;28;48985;-63
2022/01/12 07:08:16;;;;;;;;;71.75;52.25;;;;;;;;5051849;28;45539;-63
2022/01/12 07:10:42;;;;;;;;;69.50;53.50;;;;;;;;5035641;28;45664;-64
2022/01/12 07:13:10;;;;;;;;;66.50;51.25;;;;;;;;5034839;28;45605;-64
2022/01/12 07:15:36;;;;;;;;;67.00;50.50;;;;;;;;5051932;28;46380;-63
2022/01/12 07:18:02;;;;;;;;;75.50;58.75;;;;;;;;5051791;28;45773;-63
2022/01/12 07:20:27;;;;;;;;;78.50;58.25;;;;;;;;5067766;28;45749;-63
2022/01/12 07:22:53;;;;;;;;;80.75;59.75;;;;;;;;5052302;28;45429;-63
2022/01/12 07:25:18;;;;;;;;;68.00;53.00;;;;;;;;5051306;28;45643;-62
2022/01/12 07:27:43;;;;;;;;;72.75;59.25;;;;;;;;5052386;28;45504;-63
2022/01/12 07:30:09;;;;;;;;;74.00;56.75;;;;;;;;5033756;28;45443;-62
2022/01/12 07:32:34;;;;;;;;;72.75;56.50;;;;;;;;5051543;28;45572;-63
2022/01/12 07:34:59;;;;;;;;;77.25;56.00;;;;;;;;5033417;28;46674;-64
2022/01/12 07:37:25;;;;;;;;;69.00;55.00;;;;;;;;5051085;28;45433;-64
2022/01/12 07:39:50;;;;;;;;;70.75;54.50;;;;;;;;5033709;28;45515;-63
2022/01/12 07:42:15;;;;;;;;;65.25;51.50;;;;;;;;5051328;28;45583;-64
2022/01/12 07:44:40;;;;;;;;;71.75;52.75;;;;;;;;5032977;28;48261;-64
2022/01/12 07:47:06;;;;;;;;;71.50;55.25;;;;;;;;5033305;28;45363;-64
2022/01/12 07:49:33;;;;;;;;;72.50;52.75;;;;;;;;5051164;28;45452;-64
2022/01/12 07:52:00;;;;;;;;;69.00;49.25;;;;;;;;5052129;28;45393;-64
2022/01/12 07:54:25;;;;;;;;;64.75;51.50;;;;;;;;5050529;28;45676;-64
2022/01/12 07:56:50;;;;;;;;;70.00;55.00;;;;;;;;5051652;28;45401;-64
2022/01/12 07:59:15;;;;;;;;;70.75;56.00;;;;;;;;5032855;28;45501;-64
2022/01/12 08:01:41;;;;;;;;;59.75;48.75;;;;;;;;5027133;28;45735;-64
2022/01/12 08:04:06;;;;;;;;;66.75;54.25;;;;;;;;5052933;28;46510;-63
2022/01/12 08:06:31;;;;;;;;;74.00;57.75;;;;;;;;5031969;28;45541;-62
2022/01/12 08:08:57;;;;;;;;;67.50;54.00;;;;;;;;5049378;28;45544;-63
2022/01/12 08:11:23;;;;;;;;;71.75;55.00;;;;;;;;5028388;28;45518;-63
2022/01/12 08:13:50;;;;;;;;;69.50;52.25;;;;;;;;5034434;28;48630;-63
2022/01/12 08:16:15;;;;;;;;;66.75;53.75;;;;;;;;5046983;28;45608;-64
2022/01/12 08:18:40;;;;;;;;;73.00;57.50;;;;;;;;5047368;28;45529;-63
2022/01/12 08:21:06;;;;;;;;;64.50;54.75;;;;;;;;5040212;28;45666;-62
2022/01/12 08:23:32;;;;;;;;;63.25;51.00;;;;;;;;5029506;28;47583;-63
2022/01/12 08:25:58;;;;;;;;;69.75;53.50;;;;;;;;5050227;28;45994;-63
2022/01/12 08:28:23;;;;;;;;;68.75;51.75;;;;;;;;5029485;28;45434;-62
2022/01/12 08:30:48;;;;;;;;;78.00;56.00;;;;;;;;5035492;28;45576;-63
2022/01/12 08:33:15;;;;;;;;;61.75;49.00;;;;;;;;5051856;28;46382;-63
2022/01/12 08:35:41;;;;;;;;;64.25;51.50;;;;;;;;5035988;28;45594;-64
2022/01/12 08:38:06;;;;;;;;;67.50;52.75;;;;;;;;5054664;28;45548;-64
2022/01/12 08:40:31;;;;;;;;;70.00;53.75;;;;;;;;5053139;28;45469;-64
2022/01/12 08:42:57;;;;;;;;;65.25;50.00;;;;;;;;5035152;28;47928;-63
2022/01/12 08:45:22;;;;;;;;;68.75;56.00;;;;;;;;5054133;28;45442;-62
2022/01/12 08:47:48;;;;;;;;;69.75;53.00;;;;;;;;5035795;28;45929;-63
2022/01/12 08:50:13;;;;;;;;;54.00;47.50;;;;;;;;5054245;28;45382;-63
2022/01/12 08:52:46;;;;;;;;;62.50;51.75;;;;;;;;5052959;28;45621;-63
2022/01/12 08:55:12;;;;;;;;;68.50;51.75;;;;;;;;5050904;28;45662;-63
2022/01/12 08:57:37;;;;;;;;;61.50;49.75;;;;;;;;5054316;28;45388;-63
2022/01/12 09:00:04;;;;;;;;;63.25;46.00;;;;;;;;5054140;28;45735;-64
2022/01/12 09:02:29;;;;;;;;;71.75;52.00;;;;;;;;5054213;28;45679;-64
2022/01/12 09:04:54;;;;;;;;;59.25;46.25;;;;;;;;5054256;28;45468;-62
2022/01/12 09:07:19;;;;;;;;;67.25;54.00;;;;;;;;5054451;28;45490;-63
2022/01/12 09:09:45;;;;;;;;;69.25;53.50;;;;;;;;5054550;28;45370;-63
2022/01/12 09:12:10;;;;;;;;;67.50;53.50;;;;;;;;5035549;28;47096;-64
2022/01/12 09:14:35;;;;;;;;;67.00;53.00;;;;;;;;5069079;28;45480;-63
2022/01/12 09:17:01;;;;;;;;;62.00;48.75;;;;;;;;5054502;28;45770;-64
2022/01/12 09:19:27;;;;;;;;;62.75;49.75;;;;;;;;5054260;28;45364;-63
2022/01/12 09:21:53;;;;;;;;;62.25;50.50;;;;;;;;5054202;28;46898;-64
2022/01/12 09:24:18;;;;;;;;;58.25;47.75;;;;;;;;5035256;28;46381;-63
2022/01/12 09:26:44;;;;;;;;;63.50;50.25;;;;;;;;5050424;28;46084;-64
2022/01/12 09:29:09;;;;;;;;;59.75;49.25;;;;;;;;5035781;28;45439;-63
2022/01/12 09:31:35;;;;;;;;;66.50;52.25;;;;;;;;5053751;28;45397;-63
2022/01/12 09:34:00;;;;;;;;;62.50;50.00;;;;;;;;5054450;28;45959;-62
2022/01/12 09:36:26;;;;;;;;;60.50;49.25;;;;;;;;5053768;28;45363;-62
2022/01/12 09:38:51;;;;;;;;;60.25;47.00;;;;;;;;5053522;28;45844;-63
2022/01/12 09:41:16;;;;;;;;;56.75;46.50;;;;;;;;5053354;28;46652;-63
2022/01/12 09:43:42;;;;;;;;;64.75;52.00;;;;;;;;5053653;28;45528;-63
2022/01/12 09:46:08;;;;;;;;;60.50;48.50;;;;;;;;5053429;28;45975;-63
2022/01/12 09:48:34;;;;;;;;;58.75;48.50;;;;;;;;5035365;28;45641;-63
2022/01/12 09:51:02;;;;;;;;;65.00;49.75;;;;;;;;5053605;28;45644;-64
2022/01/12 09:53:32;;;;;;;;;60.25;47.75;;;;;;;;5025577;28;45989;-63
2022/01/12 09:55:58;;;;;;;;;59.00;46.25;;;;;;;;5053622;28;45651;-64
2022/01/12 09:58:23;;;;;;;;;67.00;53.25;;;;;;;;5035363;28;45465;-64
2022/01/12 10:00:56;;;;;;;;;60.50;48.50;;;;;;;;5035339;28;48454;-64
2022/01/12 10:03:23;;;;;;;;;69.00;53.50;;;;;;;;5053184;28;45549;-63
2022/01/12 10:05:49;;;;;;;;;61.25;50.25;;;;;;;;5035002;28;45577;-63
2022/01/12 10:08:15;;;;;;;;;63.00;48.25;;;;;;;;5053333;28;45441;-63
2022/01/12 10:10:42;;;;;;;;;64.75;51.75;;;;;;;;5052897;28;45865;-64
2022/01/12 10:13:23;;;;;;;;;65.25;54.50;;;;;;;;5053717;28;46156;-63
2022/01/12 10:15:50;;;;;;;;;62.75;49.75;;;;;;;;5052911;28;46100;-63
2022/01/12 10:18:15;;;;;;;;;60.50;49.50;;;;;;;;5053056;28;45757;-64
2022/01/12 10:20:44;;;;;;;;;59.25;48.50;;;;;;;;5052938;28;46353;-64
2022/01/12 10:23:11;;;;;;;;;59.25;46.75;;;;;;;;5053122;28;45491;-62
2022/01/12 10:25:37;;;;;;;;;68.00;54.00;;;;;;;;5052549;28;45576;-64
2022/01/12 10:28:12;;;;;;;;;62.50;50.00;;;;;;;;5035037;28;45412;-63
2022/01/12 10:30:39;;;;;;;;;64.25;53.25;;;;;;;;5052619;28;45669;-62
2022/01/12 10:33:05;;;;;;;;;64.00;53.00;;;;;;;;5052594;28;45476;-63
2022/01/12 10:35:32;;;;;;;;;54.75;45.75;;;;;;;;5052676;28;45454;-61
2022/01/12 10:38:09;;;;;;;;;66.75;53.25;;;;;;;;5068173;28;45579;-62
2022/01/12 10:40:48;;;;;;;;;57.75;47.50;;;;;;;;5052284;28;47916;-62
2022/01/12 10:43:34;;;;;;;;;66.00;54.00;;;;;;;;5047911;28;46229;-63
2022/01/12 10:46:01;;;;;;;;;64.00;51.25;;;;;;;;5051883;28;45416;-62
2022/01/12 10:48:43;;;;;;;;;62.75;46.75;;;;;;;;5052992;28;45491;-62
2022/01/12 10:51:09;;;;;;;;;63.25;50.75;;;;;;;;5033930;28;47882;-62
2022/01/12 10:53:36;;;;;;;;;63.50;52.00;;;;;;;;5052256;28;45361;-62
2022/01/12 10:56:01;;;;;;;;;64.25;49.00;;;;;;;;5052689;28;45788;-63
2022/01/12 10:58:26;;;;;;;;;63.75;52.25;;;;;;;;5034506;28;45664;-63
2022/01/12 11:00:51;;;;;;;;;70.00;53.25;;;;;;;;5052744;28;45792;-62
2022/01/12 11:03:18;;;;;;;;;61.00;48.50;;;;;;;;5052415;28;45369;-63
2022/01/12 11:05:43;;;;;;;;;56.00;46.25;;;;;;;;5052144;28;45447;-62
2022/01/12 11:08:10;;;;;;;;;60.75;46.00;;;;;;;;5052531;28;45484;-63
2022/01/12 11:10:35;;;;;;;;;63.75;51.25;;;;;;;;5051321;28;45789;-64
2022/01/12 11:13:01;;;;;;;;;60.50;48.50;;;;;;;;5052421;28;45469;-63
2022/01/12 11:15:26;;;;;;;;;64.25;51.50;;;;;;;;5050107;28;45403;-63
2022/01/12 11:17:51;;;;;;;;;62.25;48.00;;;;;;;;5049962;28;45362;-62
2022/01/12 11:20:36;;;;;;;;;61.00;50.25;;;;;;;;5052038;28;45682;-63
2022/01/12 11:23:04;;;;;;;;;64.25;49.00;;;;;;;;5048134;28;45318;-63
2022/01/12 11:25:31;;;;;;;;;63.00;47.50;;;;;;;;5052421;28;45425;-63
2022/01/12 11:28:19;;;;;;;;;60.75;50.75;;;;;;;;5049588;28;45459;-64
2022/01/12 11:30:50;;;;;;;;;65.00;52.75;;;;;;;;5042481;28;45633;-63
2022/01/12 11:33:16;;;;;;;;;60.00;48.75;;;;;;;;5067157;28;45913;-63
2022/01/12 11:35:43;;;;;;;;;26.50;20.75;;;;;;;;5033592;28;45583;-64
2022/01/12 11:38:19;;;;;;;;;65.00;52.75;;;;;;;;5053640;28;45489;-62
2022/01/12 11:40:44;;;;;;;;;54.75;44.25;;;;;;;;5055061;28;46032;-64
2022/01/12 11:43:20;;;;;;;;;62.75;48.75;;;;;;;;5045158;28;45438;-63
2022/01/12 11:45:46;;;;;;;;;57.75;48.50;;;;;;;;5040194;28;45432;-63
2022/01/12 11:48:11;;;;;;;;;56.75;48.00;;;;;;;;5037190;28;45823;-62
2022/01/12 11:50:36;;;;;;;;;58.50;46.00;;;;;;;;5051580;28;46440;-62
2022/01/12 11:53:01;;;;;;;;;66.00;53.00;;;;;;;;5054570;28;46054;-62
2022/01/12 11:55:40;;;;;;;;;68.25;52.25;;;;;;;;5053661;28;45468;-62
2022/01/12 11:58:15;;;;;;;;;63.00;50.75;;;;;;;;5035800;28;45603;-62
2022/01/12 12:00:40;;;;;;;;;60.25;50.25;;;;;;;;5036100;28;46852;-63
2022/01/12 12:03:13;;;;;;;;;60.00;49.00;;;;;;;;5050603;28;45723;-62
2022/01/12 12:05:39;;;;;;;;;66.25;52.25;;;;;;;;5051748;28;45399;-63
2022/01/12 12:08:04;;;;;;;;;62.25;49.75;;;;;;;;5050321;28;45462;-63
2022/01/12 12:10:36;;;;;;;;;60.75;49.50;;;;;;;;5054681;28;46497;-62
2022/01/12 12:13:02;;;;;;;;;62.50;52.50;;;;;;;;5052131;28;45476;-62
2022/01/12 12:15:28;;;;;;;;;66.75;54.25;;;;;;;;5032910;28;45484;-62
2022/01/12 12:17:54;;;;;;;;;67.00;52.75;;;;;;;;5050667;28;45385;-61
2022/01/12 12:20:22;;;;;;;;;64.25;52.50;;;;;;;;5025093;28;48067;-61
2022/01/12 12:22:48;;;;;;;;;61.25;50.75;;;;;;;;5054514;28;45525;-61
2022/01/12 12:25:34;;;;;;;;;68.50;55.75;;;;;;;;5055139;28;45334;-62
2022/01/12 12:28:04;;;;;;;;;59.50;47.25;;;;;;;;5053164;28;45921;-62
2022/01/12 12:30:30;;;;;;;;;64.25;52.75;;;;;;;;5053895;28;46451;-62
2022/01/12 12:32:57;;;;;;;;;66.50;50.00;;;;;;;;5035291;28;45506;-62
2022/01/12 12:35:22;;;;;;;;;63.25;50.25;;;;;;;;5052816;28;45560;-63
2022/01/12 12:38:07;;;;;;;;;68.50;52.50;;;;;;;;5053135;28;45405;-65
2022/01/12 12:40:36;;;;;;;;;63.75;52.50;;;;;;;;5042240;28;45939;-61
2022/01/12 12:43:04;;;;;;;;;75.00;54.75;;;;;;;;5056917;28;45670;-62
2022/01/12 12:45:43;;;;;;;;;66.50;53.50;;;;;;;;5047314;28;45507;-64
2022/01/12 12:48:09;;;;;;;;;64.25;51.75;;;;;;;;5029770;28;45419;-69
2022/01/12 12:50:35;;;;;;;;;67.75;52.50;;;;;;;;5031823;28;49009;-68
2022/01/12 12:53:00;;;;;;;;;61.75;51.75;;;;;;;;5032457;28;45823;-63
2022/01/12 12:55:25;;;;;;;;;59.25;48.75;;;;;;;;5062724;28;45355;-64
2022/01/12 12:57:53;;;;;;;;;62.00;52.25;;;;;;;;5049266;28;45497;-64
2022/01/12 13:00:20;;;;;;;;;67.00;54.25;;;;;;;;5054132;28;45835;-64
2022/01/12 13:02:46;;;;;;;;;60.25;49.25;;;;;;;;5051418;28;45456;-64
2022/01/12 13:05:13;;;;;;;;;60.75;49.75;;;;;;;;5049577;28;46006;-64
2022/01/12 13:07:39;;;;;;;;;66.00;51.50;;;;;;;;5030542;28;45420;-64
2022/01/12 13:10:06;;;;;;;;;67.00;52.25;;;;;;;;5054629;28;46597;-66
2022/01/12 13:12:38;;;;;;;;;73.50;56.25;;;;;;;;5048622;28;45546;-65
2022/01/12 13:15:03;;;;;;;;;68.75;55.00;;;;;;;;5035804;28;45422;-65
2022/01/12 13:17:29;;;;;;;;;66.00;52.00;;;;;;;;5054114;28;45488;-65
2022/01/12 13:22:23;;;;;;;;;54.75;46.25;;;;;;;;5047863;28;45451;-63
2022/01/12 13:24:48;;;;;;;;;66.00;51.25;;;;;;;;5029126;28;45554;-63
2022/01/12 13:27:14;;;;;;;;;64.75;51.75;;;;;;;;5051986;28;45589;-63
2022/01/12 13:29:45;;;;;;;;;61.25;51.25;;;;;;;;5035674;28;47931;-63
2022/01/12 13:32:11;;;;;;;;;64.50;51.00;;;;;;;;5047463;28;45338;-64
2022/01/12 13:34:42;;;;;;;;;65.25;50.00;;;;;;;;5034857;28;45544;-65
2022/01/12 13:37:11;;;;;;;;;59.00;47.25;;;;;;;;5048238;28;45442;-64
2022/01/12 13:39:37;;;;;;;;;64.25;51.25;;;;;;;;5052473;28;45864;-64
2022/01/12 13:42:03;;;;;;;;;66.25;52.25;;;;;;;;5033832;28;45555;-64
2022/01/12 13:44:28;;;;;;;;;71.50;54.50;;;;;;;;5045313;28;45816;-64
2022/01/12 13:47:12;;;;;;;;;68.50;54.00;;;;;;;;5053780;28;45382;-65
2022/01/12 13:49:37;;;;;;;;;68.75;53.00;;;;;;;;5053605;28;45886;-64
2022/01/12 13:52:07;;;;;;;;;67.00;55.00;;;;;;;;5048066;28;45508;-64
2022/01/12 13:54:34;;;;;;;;;65.75;52.50;;;;;;;;5053137;28;45496;-64
2022/01/12 13:57:00;;;;;;;;;59.75;50.00;;;;;;;;5053644;28;45490;-65
2022/01/12 13:59:28;;;;;;;;;26.25;22.00;;;;;;;;5048172;28;45830;-64
2022/01/12 14:01:53;;;;;;;;;49.75;43.00;;;;;;;;5034149;28;46165;-64
2022/01/12 14:04:32;;;;;;;;;64.25;52.75;;;;;;;;5053829;28;45481;-64
2022/01/12 14:07:01;;;;;;;;;72.00;55.25;;;;;;;;5043244;28;45547;-64
2022/01/12 14:11:53;;;;;;;;;63.50;52.00;;;;;;;;5049073;28;46946;-63
2022/01/12 14:14:18;;;;;;;;;68.50;52.50;;;;;;;;5048844;28;45542;-62
2022/01/12 14:16:44;;;;;;;;;65.00;53.00;;;;;;;;5037104;28;45438;-64
2022/01/12 14:19:09;;;;;;;;;65.00;50.75;;;;;;;;5053564;28;45643;-62
2022/01/12 14:21:52;;;;;;;;;68.75;53.25;;;;;;;;5069966;27;45426;-61
2022/01/12 14:24:18;;;;;;;;;66.00;54.50;;;;;;;;5067895;27;45456;-63
2022/01/12 14:26:45;;;;;;;;;67.75;55.25;;;;;;;;5066537;28;45422;-63
2022/01/12 14:29:10;;;;;;;;;72.75;58.50;;;;;;;;5067952;28;45347;-64
2022/01/12 14:31:36;;;;;;;;;66.00;52.00;;;;;;;;5067539;28;47549;-62
2022/01/12 14:34:02;;;;;;;;;70.50;54.75;;;;;;;;5069307;28;45376;-63
2022/01/12 14:36:27;;;;;;;;;67.50;56.00;;;;;;;;5067636;28;45476;-62
2022/01/12 14:38:53;;;;;;;;;75.75;56.75;;;;;;;;5067803;28;45440;-62
2022/01/12 14:41:18;;;;;;;;;70.75;54.75;;;;;;;;5067464;28;45921;-63
2022/01/12 14:43:43;;;;;;;;;75.00;59.25;;;;;;;;5067600;27;45927;-63
2022/01/12 14:46:09;;;;;;;;;72.50;58.00;;;;;;;;5069635;27;45623;-63
2022/01/12 14:48:34;;;;;;;;;71.25;57.00;;;;;;;;5066222;28;45546;-64
2022/01/12 14:50:59;;;;;;;;;69.50;58.25;;;;;;;;5065928;28;48618;-63
2022/01/12 14:53:25;;;;;;;;;72.75;58.00;;;;;;;;5067517;28;45415;-63
2022/01/12 14:55:52;;;;;;;;;69.00;56.00;;;;;;;;5067855;28;45621;-64
2022/01/12 14:58:18;;;;;;;;;76.75;57.75;;;;;;;;5068246;28;45443;-64
2022/01/12 15:00:44;;;;;;;;;72.25;58.25;;;;;;;;5068002;28;46690;-64
2022/01/12 15:03:10;;;;;;;;;69.25;56.50;;;;;;;;5067399;28;45673;-61
2022/01/12 15:05:36;;;;;;;;;72.50;57.75;;;;;;;;5067449;28;45614;-62
2022/01/12 15:08:01;;;;;;;;;66.50;53.50;;;;;;;;5067354;28;45526;-62
2022/01/12 15:10:27;;;;;;;;;68.25;56.00;;;;;;;;5067993;27;46450;-63
2022/01/12 15:12:55;;;;;;;;;73.75;57.25;;;;;;;;5067312;28;45516;-62
2022/01/12 15:15:20;;;;;;;;;75.50;58.25;;;;;;;;5067317;28;45618;-62
2022/01/12 15:17:46;;;;;;;;;65.25;53.25;;;;;;;;5067243;28;45429;-63
2022/01/12 15:20:12;;;;;;;;;70.00;55.75;;;;;;;;5074444;27;45755;-63
2022/01/12 15:22:39;;;;;;;;;67.75;55.50;;;;;;;;5087466;27;45494;-63
2022/01/12 15:25:05;;;;;;;;;71.75;56.75;;;;;;;;5089589;27;45428;-63
2022/01/12 15:27:30;;;;;;;;;71.50;58.75;;;;;;;;5087314;27;45521;-64
2022/01/12 15:29:57;;;;;;;;;72.50;55.25;;;;;;;;5087028;27;46448;-63
2022/01/12 15:32:22;;;;;;;;;74.00;57.50;;;;;;;;5075924;27;45472;-63
2022/01/12 15:34:48;;;;;;;;;63.75;51.25;;;;;;;;5073951;28;45452;-64
2022/01/12 15:37:13;;;;;;;;;68.75;56.25;;;;;;;;5074550;27;45529;-62